Time;durP1;ratioP1;P1;durP2;ratioP2;P2;SDS_P1;SDS_P2;PMS_P1;PMS_P2;Temp;Humidity;BMP_temperature;BMP_pressure;BME280_temperature;BME280_humidity;BME280_pressure;Samples;Min_cycle;Max_cycle;Signal;HPM_P1;HPM_P2
2023/02/17 00:01:17;;;;;;;22.00;15.03;;;10.80;99.90;;;;;;5012046;28;20049;-74
2023/02/17 00:03:46;;;;;;;23.80;14.43;;;10.80;99.90;;;;;;5013235;28;20033;-75
2023/02/17 00:06:13;;;;;;;19.90;14.27;;;10.80;99.90;;;;;;5011650;28;20054;-75
2023/02/17 00:08:39;;;;;;;20.17;14.93;;;10.80;99.90;;;;;;5013167;28;20386;-75
2023/02/17 00:11:05;;;;;;;21.40;13.83;;;10.80;99.90;;;;;;4995769;28;20111;-75
2023/02/17 00:13:32;;;;;;;23.10;14.93;;;10.80;99.90;;;;;;5013265;28;20113;-75
2023/02/17 00:15:58;;;;;;;21.90;15.37;;;10.80;99.90;;;;;;4995520;28;20382;-74
2023/02/17 00:18:24;;;;;;;18.53;13.20;;;10.80;99.90;;;;;;5011836;28;20033;-76
2023/02/17 00:20:49;;;;;;;20.20;14.03;;;10.80;99.90;;;;;;5011881;28;20037;-75
2023/02/17 00:23:15;;;;;;;18.30;13.07;;;10.80;99.90;;;;;;5011760;28;20057;-75
2023/02/17 00:25:41;;;;;;;25.43;14.50;;;10.80;99.90;;;;;;4995557;28;20050;-74
2023/02/17 00:28:07;;;;;;;18.90;13.33;;;10.80;99.90;;;;;;5011844;28;20467;-75
2023/02/17 00:30:32;;;;;;;19.53;13.10;;;10.90;99.90;;;;;;4995413;28;20030;-75
2023/02/17 00:32:58;;;;;;;18.17;12.30;;;10.90;99.90;;;;;;5028195;28;20030;-75
2023/02/17 00:35:24;;;;;;;17.20;11.97;;;10.90;99.90;;;;;;4995386;28;20034;-74
2023/02/17 00:37:50;;;;;;;16.80;11.80;;;10.90;99.90;;;;;;5012926;28;20056;-74
2023/02/17 00:40:16;;;;;;;16.03;10.87;;;10.80;99.90;;;;;;5011792;28;20033;-75
2023/02/17 00:42:41;;;;;;;15.30;10.47;;;10.90;99.90;;;;;;5011706;28;20026;-75
2023/02/17 00:45:08;;;;;;;16.70;11.23;;;10.90;99.90;;;;;;4995335;28;20022;-75
2023/02/17 00:47:33;;;;;;;14.13;9.60;;;10.90;99.90;;;;;;5011659;28;20022;-75
2023/02/17 00:49:59;;;;;;;14.50;10.23;;;10.90;99.90;;;;;;4995303;28;20057;-75
2023/02/17 00:52:24;;;;;;;15.07;10.77;;;10.90;99.90;;;;;;4995211;28;20026;-74
2023/02/17 00:54:50;;;;;;;14.60;9.90;;;10.90;99.90;;;;;;5011691;28;20080;-75
2023/02/17 00:57:16;;;;;;;12.40;8.70;;;11.00;99.90;;;;;;5012836;28;20080;-74
2023/02/17 00:59:41;;;;;;;14.33;10.07;;;10.90;99.90;;;;;;4996310;28;20030;-75
2023/02/17 01:02:07;;;;;;;14.83;10.80;;;10.90;99.90;;;;;;5015105;28;20058;-75
2023/02/17 01:04:33;;;;;;;15.37;10.00;;;10.90;99.90;;;;;;4998696;28;20120;-74
2023/02/17 01:06:58;;;;;;;15.77;10.80;;;11.00;99.90;;;;;;5014786;28;20142;-74
2023/02/17 01:09:24;;;;;;;15.60;11.43;;;10.90;99.90;;;;;;5014919;28;20033;-74
2023/02/17 01:11:50;;;;;;;18.17;11.63;;;10.90;99.90;;;;;;4998558;28;20060;-74
2023/02/17 01:14:15;;;;;;;15.73;11.43;;;10.90;99.90;;;;;;5015938;28;20387;-74
2023/02/17 01:16:45;;;;;;;17.37;12.20;;;10.90;99.90;;;;;;5014821;28;20453;-74
2023/02/17 01:19:13;;;;;;;15.07;10.98;;;10.90;99.90;;;;;;5014801;28;20049;-75
2023/02/17 01:21:39;;;;;;;17.08;12.77;;;11.00;99.90;;;;;;5014923;28;20025;-75
2023/02/17 01:24:07;;;;;;;19.33;12.57;;;11.00;99.90;;;;;;5015828;28;20037;-75
2023/02/17 01:26:34;;;;;;;16.63;11.47;;;10.90;99.90;;;;;;5014523;28;20405;-75
2023/02/17 01:29:01;;;;;;;17.73;11.57;;;10.90;99.90;;;;;;5015691;28;20022;-75
2023/02/17 01:31:27;;;;;;;17.80;12.77;;;10.90;99.90;;;;;;5014728;28;20017;-74
2023/02/17 01:33:57;;;;;;;16.60;11.90;;;11.00;99.90;;;;;;4998358;28;20164;-75
2023/02/17 01:36:23;;;;;;;16.77;12.60;;;10.90;99.90;;;;;;5014494;28;20034;-75
2023/02/17 01:38:49;;;;;;;17.83;12.90;;;11.00;99.90;;;;;;5015624;28;20030;-74
2023/02/17 01:41:17;;;;;;;17.60;12.00;;;11.00;99.90;;;;;;4997990;28;20037;-75
2023/02/17 01:44:02;;;;;;;18.07;12.37;;;11.00;99.90;;;;;;5014201;28;20022;-76
2023/02/17 01:46:31;;;;;;;17.83;13.93;;;11.00;99.90;;;;;;5022514;28;20048;-75
2023/02/17 01:48:57;;;;;;;16.23;12.00;;;11.00;99.90;;;;;;5034075;28;20430;-75
2023/02/17 01:51:27;;;;;;;18.83;13.30;;;11.00;99.90;;;;;;5017314;28;20021;-75
2023/02/17 01:54:11;;;;;;;19.97;14.53;;;11.00;99.90;;;;;;5035032;28;20026;-75
2023/02/17 01:56:38;;;;;;;;;;;11.00;99.90;;;;;;5034236;28;20022;-75
2023/02/17 01:59:17;;;;;;;21.27;13.77;;;11.00;99.90;;;;;;5035015;28;20396;-75
2023/02/17 02:01:43;;;;;;;22.23;14.70;;;11.00;99.90;;;;;;5033735;28;20025;-74
2023/02/17 02:04:09;;;;;;;21.30;14.60;;;11.00;99.90;;;;;;5017071;28;20084;-75
2023/02/17 02:06:37;;;;;;;18.83;13.17;;;11.00;99.90;;;;;;5028845;28;20054;-75
2023/02/17 02:09:08;;;;;;;21.83;14.23;;;10.90;99.90;;;;;;5029878;28;20056;-84
2023/02/17 02:11:34;;;;;;;25.20;16.37;;;10.90;99.90;;;;;;5032566;28;20382;-83
2023/02/17 02:14:01;;;;;;;24.10;15.60;;;11.00;99.90;;;;;;5029670;28;20032;-83
2023/02/17 02:16:36;;;;;;;25.97;16.90;;;11.00;99.90;;;;;;5024554;28;20540;-83
2023/02/17 02:19:20;;;;;;;28.53;17.17;;;11.00;99.90;;;;;;5032895;28;20087;-85
2023/02/17 02:22:29;;;;;;;28.17;16.58;;;11.00;99.90;;;;;;5032638;28;20433;-86
2023/02/17 02:25:15;;;;;;;28.07;17.10;;;10.90;99.90;;;;;;5035552;28;20044;-85
2023/02/17 02:28:08;;;;;;;28.27;16.60;;;10.90;99.90;;;;;;5035977;28;20112;-88
2023/02/17 02:30:46;;;;;;;27.13;17.30;;;10.90;99.90;;;;;;5032931;28;20077;-86
2023/02/17 02:33:36;;;;;;;28.33;16.47;;;10.90;99.90;;;;;;5033679;28;20032;-86
2023/02/17 02:36:25;;;;;;;29.40;18.60;;;10.90;99.90;;;;;;5032974;28;20389;-85
2023/02/17 02:39:05;;;;;;;27.87;17.40;;;10.90;99.90;;;;;;5033536;28;20119;-85
2023/02/17 02:41:45;;;;;;;27.23;18.07;;;10.90;99.90;;;;;;5034461;28;20028;-85
2023/02/17 02:44:14;;;;;;;27.70;18.07;;;10.90;99.90;;;;;;5034259;28;20025;-84
2023/02/17 02:46:40;;;;;;;28.60;17.90;;;10.90;99.90;;;;;;5034376;28;20025;-85
2023/02/17 02:49:07;;;;;;;28.87;18.30;;;10.90;99.90;;;;;;5033639;28;20048;-85
2023/02/17 02:51:52;;;;;;;30.43;18.77;;;10.90;99.90;;;;;;5000466;28;20470;-85
2023/02/17 02:54:34;;;;;;;24.00;16.70;;;10.90;99.90;;;;;;5034646;28;20029;-85
2023/02/17 02:57:19;;;;;;;30.70;18.43;;;10.90;99.90;;;;;;5033453;28;20385;-85
2023/02/17 03:00:00;;;;;;;27.27;16.90;;;10.90;99.90;;;;;;5034137;28;20030;-85
2023/02/17 03:02:34;;;;;;;30.17;18.23;;;10.90;99.90;;;;;;5033155;28;20049;-85
2023/02/17 03:05:06;;;;;;;26.40;16.47;;;10.90;99.90;;;;;;5032954;28;20120;-86
2023/02/17 03:07:40;;;;;;;25.67;16.47;;;10.90;99.90;;;;;;5033030;28;20092;-86
2023/02/17 03:10:07;;;;;;;26.33;16.43;;;10.80;99.90;;;;;;5032742;28;20071;-86
2023/02/17 03:12:33;;;;;;;26.57;16.37;;;10.90;99.90;;;;;;5016274;28;20030;-85
2023/02/17 03:15:09;;;;;;;22.27;15.43;;;10.90;99.90;;;;;;5016401;28;20517;-87
2023/02/17 03:17:34;;;;;;;24.58;15.25;;;10.90;99.90;;;;;;5032756;28;20025;-85
2023/02/17 03:20:03;;;;;;;25.17;15.27;;;10.90;99.90;;;;;;5016529;28;20102;-84
2023/02/17 03:22:39;;;;;;;25.67;14.70;;;10.90;99.90;;;;;;5032159;28;20087;-86
2023/02/17 03:25:06;;;;;;;21.70;13.80;;;10.90;99.90;;;;;;5032246;28;20079;-84
2023/02/17 03:27:32;;;;;;;21.93;14.20;;;10.90;99.90;;;;;;5033594;28;20105;-85
2023/02/17 03:29:57;;;;;;;21.53;13.63;;;10.90;99.90;;;;;;5032628;28;20125;-85
2023/02/17 03:32:23;;;;;;;22.40;13.23;;;10.90;99.90;;;;;;5015961;28;20076;-85
2023/02/17 03:34:49;;;;;;;22.07;13.87;;;10.80;99.90;;;;;;5033094;28;20021;-85
2023/02/17 03:37:15;;;;;;;22.13;14.73;;;10.90;99.90;;;;;;5016478;28;20385;-85
2023/02/17 03:39:40;;;;;;;22.00;14.10;;;10.70;99.90;;;;;;5015661;28;20036;-86
2023/02/17 03:42:06;;;;;;;20.73;13.40;;;10.80;99.90;;;;;;5032510;28;20033;-85
2023/02/17 03:44:32;;;;;;;19.63;11.80;;;10.90;99.90;;;;;;5032238;28;20028;-85
2023/02/17 03:46:57;;;;;;;19.87;12.80;;;10.80;99.90;;;;;;5032514;28;20034;-85
2023/02/17 03:49:23;;;;;;;20.10;12.13;;;10.90;99.90;;;;;;5033319;28;20040;-85
2023/02/17 03:51:48;;;;;;;21.50;12.87;;;10.80;99.90;;;;;;5015767;28;20075;-85
2023/02/17 03:54:14;;;;;;;20.23;12.10;;;10.90;99.90;;;;;;5032138;28;20113;-86
2023/02/17 03:56:40;;;;;;;19.00;12.13;;;10.80;99.90;;;;;;4999378;28;20037;-85
2023/02/17 03:59:05;;;;;;;19.63;12.43;;;10.80;99.90;;;;;;5032136;28;20021;-85
2023/02/17 04:01:31;;;;;;;19.27;11.33;;;10.80;99.90;;;;;;5032200;28;20026;-85
2023/02/17 04:03:57;;;;;;;19.47;11.90;;;10.80;99.90;;;;;;5032116;28;20029;-86
2023/02/17 04:06:22;;;;;;;17.83;10.60;;;10.80;99.90;;;;;;5032013;28;20077;-85
2023/02/17 04:08:48;;;;;;;19.53;11.93;;;10.80;99.90;;;;;;4999412;28;20018;-85
2023/02/17 04:11:14;;;;;;;19.27;11.67;;;10.80;99.90;;;;;;5032206;28;20219;-85
2023/02/17 04:13:39;;;;;;;16.33;10.07;;;10.90;99.90;;;;;;5030468;28;20108;-86
2023/02/17 04:16:08;;;;;;;17.37;11.60;;;10.80;99.90;;;;;;5015658;28;20034;-85
2023/02/17 04:18:34;;;;;;;21.93;12.03;;;10.90;99.90;;;;;;5030626;28;20029;-84
2023/02/17 04:21:00;;;;;;;18.70;11.43;;;10.80;99.90;;;;;;5014291;28;20029;-85
2023/02/17 04:23:26;;;;;;;17.80;11.53;;;10.90;99.90;;;;;;5015255;28;20033;-85
2023/02/17 04:25:52;;;;;;;18.87;10.70;;;10.80;99.90;;;;;;5015450;28;20029;-84
2023/02/17 04:28:17;;;;;;;17.43;10.43;;;10.90;99.90;;;;;;5032562;28;20113;-85
2023/02/17 04:30:45;;;;;;;18.50;11.10;;;10.90;99.90;;;;;;5031814;28;20382;-85
2023/02/17 04:33:11;;;;;;;16.50;10.87;;;10.90;99.90;;;;;;5015659;28;20087;-85
2023/02/17 04:35:37;;;;;;;21.27;12.30;;;10.90;99.90;;;;;;5034466;28;20474;-85
2023/02/17 04:38:03;;;;;;;21.47;13.73;;;10.90;99.90;;;;;;5002637;28;20393;-85
2023/02/17 04:40:29;;;;;;;18.63;12.68;;;10.90;99.90;;;;;;5035352;28;20040;-85
2023/02/17 04:42:55;;;;;;;22.33;14.60;;;10.90;99.90;;;;;;5035759;28;20163;-85
2023/02/17 04:45:21;;;;;;;22.27;14.93;;;10.90;99.90;;;;;;5019160;28;20120;-85
2023/02/17 04:47:47;;;;;;;24.07;16.77;;;10.90;99.90;;;;;;5019047;28;20018;-86
2023/02/17 04:50:12;;;;;;;28.13;18.00;;;10.90;99.90;;;;;;5019010;28;20029;-85
2023/02/17 04:52:38;;;;;;;25.73;17.47;;;10.90;99.90;;;;;;5035494;28;20112;-85
2023/02/17 04:55:04;;;;;;;26.30;17.87;;;10.90;99.90;;;;;;5018950;28;20022;-86
2023/02/17 04:57:30;;;;;;;27.50;18.30;;;10.90;99.90;;;;;;5035593;28;20079;-85
2023/02/17 04:59:56;;;;;;;31.83;18.55;;;10.90;99.90;;;;;;5035128;28;20017;-85
2023/02/17 05:02:22;;;;;;;27.73;18.43;;;10.90;99.90;;;;;;5035414;28;20064;-85
2023/02/17 05:04:48;;;;;;;30.90;18.80;;;10.90;99.90;;;;;;5035414;28;20026;-86
2023/02/17 05:07:13;;;;;;;30.23;19.63;;;10.90;99.90;;;;;;5018059;28;20049;-85
2023/02/17 05:09:39;;;;;;;31.27;19.67;;;10.90;99.90;;;;;;5011278;28;20025;-85
2023/02/17 05:12:06;;;;;;;28.83;18.10;;;10.90;99.90;;;;;;5018707;28;20030;-77
2023/02/17 05:14:32;;;;;;;26.58;18.25;;;10.90;99.90;;;;;;5032367;28;20024;-76
2023/02/17 05:16:57;;;;;;;27.23;18.77;;;10.90;99.90;;;;;;5034293;28;20026;-77
2023/02/17 05:19:23;;;;;;;30.03;19.57;;;10.90;99.90;;;;;;5016321;28;20029;-77
2023/02/17 05:21:50;;;;;;;29.13;20.23;;;10.90;99.90;;;;;;4981648;28;20053;-77
2023/02/17 05:24:16;;;;;;;32.80;20.63;;;10.80;99.90;;;;;;4980517;28;20030;-77
2023/02/17 05:26:41;;;;;;;28.13;18.87;;;10.80;99.90;;;;;;4998036;28;20033;-77
2023/02/17 05:29:07;;;;;;;31.15;20.00;;;10.80;99.90;;;;;;5014657;28;20034;-78
2023/02/17 05:31:33;;;;;;;33.83;21.17;;;10.80;99.90;;;;;;5031110;28;20486;-77
2023/02/17 05:33:58;;;;;;;30.60;20.33;;;10.70;99.90;;;;;;5014494;28;20034;-77
2023/02/17 05:36:24;;;;;;;28.63;19.50;;;10.70;99.90;;;;;;5014482;28;20395;-77
2023/02/17 05:38:50;;;;;;;29.67;19.67;;;10.70;99.90;;;;;;4997854;28;20422;-77
2023/02/17 05:41:17;;;;;;;27.67;18.20;;;10.70;99.90;;;;;;4982144;28;20032;-77
2023/02/17 05:43:43;;;;;;;30.40;20.57;;;10.70;99.90;;;;;;5014249;28;20101;-76
2023/02/17 05:46:09;;;;;;;29.70;19.50;;;10.70;99.90;;;;;;5013293;28;20018;-77
2023/02/17 05:48:34;;;;;;;31.47;20.63;;;10.70;99.90;;;;;;5014436;28;20092;-76
2023/02/17 05:51:00;;;;;;;31.00;20.27;;;10.70;99.90;;;;;;5014142;28;20112;-77
2023/02/17 05:53:26;;;;;;;29.63;19.67;;;10.70;99.90;;;;;;5014100;28;20436;-77
2023/02/17 05:55:51;;;;;;;31.77;20.50;;;10.70;99.90;;;;;;5014013;28;20018;-77
2023/02/17 05:58:17;;;;;;;32.40;19.60;;;10.70;99.90;;;;;;4997736;28;20048;-77
2023/02/17 06:00:44;;;;;;;29.83;19.50;;;10.70;99.90;;;;;;4981782;28;20096;-77
2023/02/17 06:03:11;;;;;;;32.73;20.10;;;10.70;99.90;;;;;;4981704;28;20429;-77
2023/02/17 06:05:36;;;;;;;31.13;21.17;;;10.70;99.90;;;;;;5014029;28;20022;-76
2023/02/17 06:08:02;;;;;;;30.60;19.73;;;10.70;99.90;;;;;;4997243;28;20399;-75
2023/02/17 06:10:28;;;;;;;29.80;19.83;;;10.80;99.90;;;;;;5030067;28;20113;-76
2023/02/17 06:12:53;;;;;;;28.57;19.30;;;10.70;99.90;;;;;;5013641;28;20382;-76
2023/02/17 06:15:19;;;;;;;27.63;18.57;;;10.70;99.90;;;;;;5029994;28;20497;-77
2023/02/17 06:17:44;;;;;;;27.73;17.37;;;10.70;99.90;;;;;;4997274;28;20136;-77
2023/02/17 06:20:11;;;;;;;23.97;16.47;;;10.70;99.90;;;;;;5013718;28;20029;-76
2023/02/17 06:22:36;;;;;;;26.63;17.70;;;10.70;99.90;;;;;;5013460;28;20505;-76
2023/02/17 06:25:02;;;;;;;26.53;17.10;;;10.70;99.90;;;;;;5013455;28;20030;-77
2023/02/17 06:27:28;;;;;;;27.30;18.03;;;10.80;99.90;;;;;;5029831;28;20026;-77
2023/02/17 06:29:54;;;;;;;26.50;17.57;;;10.70;99.90;;;;;;4997151;28;20032;-76
2023/02/17 06:32:19;;;;;;;26.83;17.07;;;10.70;99.90;;;;;;4980791;28;20061;-78
2023/02/17 06:34:45;;;;;;;27.73;17.90;;;10.70;99.90;;;;;;4996983;28;20148;-76
2023/02/17 06:37:11;;;;;;;28.10;16.73;;;10.70;99.90;;;;;;5029670;28;20461;-76
2023/02/17 06:39:36;;;;;;;26.20;18.33;;;10.70;99.90;;;;;;4980553;28;20068;-77
2023/02/17 06:42:02;;;;;;;27.43;16.70;;;10.70;99.90;;;;;;4980663;28;20030;-76
2023/02/17 06:44:28;;;;;;;27.70;16.83;;;10.70;99.90;;;;;;5013017;28;20032;-75
2023/02/17 06:46:53;;;;;;;25.23;16.17;;;10.70;99.90;;;;;;4996899;28;20030;-76
2023/02/17 06:49:19;;;;;;;26.17;15.23;;;10.70;99.90;;;;;;4980537;28;20061;-76
2023/02/17 06:51:45;;;;;;;26.53;15.47;;;10.80;99.90;;;;;;4996527;28;20030;-76
2023/02/17 06:54:10;;;;;;;26.27;16.10;;;10.80;99.90;;;;;;4996821;28;20030;-76
2023/02/17 06:56:36;;;;;;;25.97;17.30;;;10.80;99.90;;;;;;5012998;28;20478;-76
2023/02/17 06:59:02;;;;;;;27.27;16.77;;;10.80;99.90;;;;;;4996425;28;20030;-76
2023/02/17 07:01:27;;;;;;;29.27;17.10;;;10.70;99.90;;;;;;4996328;28;20029;-75
2023/02/17 07:03:54;;;;;;;25.53;16.57;;;10.80;99.90;;;;;;5012664;28;20542;-76
2023/02/17 07:06:22;;;;;;;27.03;17.77;;;10.80;99.90;;;;;;5029298;28;20021;-75
2023/02/17 07:08:48;;;;;;;26.37;17.43;;;10.80;99.90;;;;;;4996427;28;20042;-75
2023/02/17 07:11:15;;;;;;;28.43;16.53;;;10.80;99.90;;;;;;5012763;28;20053;-76
2023/02/17 07:13:40;;;;;;;24.83;17.57;;;10.80;99.90;;;;;;5012726;28;20052;-75
2023/02/17 07:16:07;;;;;;;27.13;17.40;;;10.80;99.90;;;;;;5029218;28;20537;-75
2023/02/17 07:18:34;;;;;;;29.10;18.07;;;10.80;99.90;;;;;;5028944;28;20030;-75
2023/02/17 07:20:59;;;;;;;25.63;16.90;;;10.90;99.90;;;;;;5014225;28;20037;-76
2023/02/17 07:23:25;;;;;;;27.57;17.87;;;10.90;99.90;;;;;;4996826;28;20046;-76
2023/02/17 07:25:51;;;;;;;27.83;17.67;;;10.90;99.90;;;;;;4996622;28;20034;-77
2023/02/17 07:28:17;;;;;;;27.03;17.80;;;10.90;99.90;;;;;;5028622;28;20140;-76
2023/02/17 07:30:43;;;;;;;27.60;17.43;;;10.90;99.90;;;;;;4996107;28;20026;-78
2023/02/17 07:33:09;;;;;;;24.88;16.23;;;10.90;99.90;;;;;;4996259;28;20040;-76
2023/02/17 07:35:42;;;;;;;24.27;16.55;;;10.90;99.90;;;;;;4980311;28;20036;-78
2023/02/17 07:38:08;;;;;;;24.83;15.90;;;10.90;99.90;;;;;;5012534;28;20030;-77
2023/02/17 07:40:34;;;;;;;25.90;17.10;;;11.00;99.90;;;;;;5015344;28;20038;-77
2023/02/17 07:43:01;;;;;;;26.33;16.83;;;11.00;99.90;;;;;;5031980;28;20038;-78
2023/02/17 07:45:27;;;;;;;25.95;17.60;;;11.00;99.90;;;;;;5015552;28;20116;-79
2023/02/17 07:47:52;;;;;;;24.50;16.95;;;11.10;99.90;;;;;;5032131;28;20160;-76
2023/02/17 07:50:18;;;;;;;25.43;17.53;;;11.00;99.90;;;;;;5015719;28;20030;-76
2023/02/17 07:52:44;;;;;;;26.00;17.20;;;11.10;99.90;;;;;;5032027;28;20030;-78
2023/02/17 07:55:10;;;;;;;23.00;16.03;;;11.10;99.90;;;;;;5015581;28;20040;-78
2023/02/17 07:57:35;;;;;;;30.52;19.15;;;11.10;99.90;;;;;;5015655;28;20064;-78
2023/02/17 08:00:02;;;;;;;30.07;19.13;;;11.10;99.90;;;;;;5015768;28;20026;-77
2023/02/17 08:02:28;;;;;;;27.77;18.40;;;11.10;99.90;;;;;;5032493;28;20041;-79
2023/02/17 08:04:53;;;;;;;26.10;18.03;;;11.20;99.90;;;;;;5015901;28;20033;-78
2023/02/17 08:07:19;;;;;;;25.67;17.75;;;11.20;99.90;;;;;;5012104;28;20054;-79
2023/02/17 08:15:13;;;;;;;27.05;17.13;;;11.20;99.90;;;;;;5036225;28;20390;-78
2023/02/17 08:17:39;;;;;;;24.13;16.75;;;11.20;99.90;;;;;;5016486;28;20038;-76
2023/02/17 08:20:06;;;;;;;21.58;15.70;;;11.30;99.90;;;;;;5026800;28;20033;-78
2023/02/17 08:22:32;;;;;;;23.52;15.80;;;11.30;99.90;;;;;;5035814;28;20436;-77
2023/02/17 08:24:58;;;;;;;21.35;14.55;;;11.30;99.90;;;;;;5030173;28;20026;-78
2023/02/17 08:27:24;;;;;;;22.95;14.93;;;11.30;99.90;;;;;;5027043;28;20083;-78
2023/02/17 08:29:50;;;;;;;24.70;15.50;;;11.40;99.90;;;;;;5019121;28;20363;-77
2023/02/17 08:32:16;;;;;;;23.33;14.18;;;11.40;99.90;;;;;;5035626;28;20036;-77
2023/02/17 08:34:42;;;;;;;22.20;13.40;;;11.40;99.90;;;;;;5035627;28;20018;-79
2023/02/17 08:37:09;;;;;;;24.02;15.07;;;11.40;99.90;;;;;;5019655;28;20036;-78
2023/02/17 08:39:35;;;;;;;19.15;13.18;;;11.50;99.90;;;;;;5035239;28;20485;-79
2023/02/17 08:42:02;;;;;;;20.23;12.40;;;11.50;99.90;;;;;;5034955;28;20055;-78
2023/02/17 08:44:28;;;;;;;21.15;12.02;;;11.50;99.90;;;;;;5019072;28;20037;-79
2023/02/17 08:46:54;;;;;;;16.90;11.38;;;11.50;99.90;;;;;;5019066;28;20021;-79
2023/02/17 08:49:23;;;;;;;19.42;11.82;;;11.50;99.90;;;;;;5018859;28;20029;-79
2023/02/17 08:51:51;;;;;;;16.67;10.80;;;11.50;99.90;;;;;;5036036;28;20017;-78
2023/02/17 08:54:17;;;;;;;16.50;11.45;;;11.60;99.90;;;;;;5018909;28;20030;-79
2023/02/17 08:56:43;;;;;;;15.65;9.77;;;11.60;99.90;;;;;;5036486;28;20075;-80
2023/02/17 08:59:10;;;;;;;16.05;10.63;;;11.60;99.90;;;;;;5035314;28;20018;-80
2023/02/17 09:01:37;;;;;;;14.23;9.43;;;11.60;99.90;;;;;;5034047;28;20075;-78
2023/02/17 09:04:04;;;;;;;14.35;9.55;;;11.70;99.90;;;;;;5026856;28;20029;-78
2023/02/17 09:06:36;;;;;;;13.63;9.10;;;11.70;99.90;;;;;;5035001;28;20049;-79
2023/02/17 09:09:04;;;;;;;14.82;9.52;;;11.70;99.90;;;;;;5031019;28;20375;-79
2023/02/17 09:11:30;;;;;;;13.25;8.57;;;11.70;99.90;;;;;;5026443;28;20112;-79
2023/02/17 09:13:56;;;;;;;12.23;7.85;;;11.80;99.90;;;;;;5011032;28;20116;-80
2023/02/17 09:16:23;;;;;;;13.38;8.93;;;11.80;99.90;;;;;;5017903;28;20060;-78
2023/02/17 09:18:54;;;;;;;13.45;8.85;;;11.80;99.90;;;;;;5018853;28;20025;-79
2023/02/17 09:21:20;;;;;;;14.43;8.13;;;11.80;99.90;;;;;;5033432;28;20378;-79
2023/02/17 09:23:46;;;;;;;13.57;7.80;;;11.80;99.90;;;;;;5033733;28;20029;-79
2023/02/17 09:26:14;;;;;;;13.40;7.95;;;11.80;99.90;;;;;;5033841;28;20017;-79
2023/02/17 09:28:40;;;;;;;12.93;7.40;;;11.90;99.90;;;;;;5034113;28;20009;-80
2023/02/17 09:31:17;;;;;;;11.73;7.35;;;11.90;99.90;;;;;;5033741;28;20025;-80
2023/02/17 09:33:43;;;;;;;11.68;7.03;;;11.90;99.90;;;;;;5033810;28;20117;-80
2023/02/17 09:36:12;;;;;;;11.45;7.10;;;11.90;99.90;;;;;;5034037;28;20116;-80
2023/02/17 09:38:40;;;;;;;10.63;6.97;;;11.90;99.90;;;;;;5034095;28;20021;-80
2023/02/17 09:41:22;;;;;;;11.57;6.88;;;11.90;99.90;;;;;;5035537;28;20067;-80
2023/02/17 09:43:53;;;;;;;11.15;6.50;;;12.00;99.90;;;;;;5033447;28;20025;-80
2023/02/17 09:46:43;;;;;;;9.93;6.13;;;12.00;99.90;;;;;;5033958;28;20168;-80
2023/02/17 09:49:17;;;;;;;10.23;6.45;;;12.00;99.90;;;;;;5033997;28;20028;-80
2023/02/17 09:51:46;;;;;;;10.15;6.53;;;12.00;99.90;;;;;;5033901;28;20542;-80
2023/02/17 09:54:24;;;;;;;13.73;6.53;;;12.00;99.90;;;;;;5033880;28;20022;-80
2023/02/17 09:56:51;;;;;;;9.55;6.00;;;12.10;99.90;;;;;;5033999;28;20036;-79
2023/02/17 09:59:31;;;;;;;11.10;6.07;;;12.10;99.90;;;;;;5033560;28;20029;-79
2023/02/17 10:01:58;;;;;;;10.00;6.32;;;12.10;99.90;;;;;;5031696;28;20061;-81
2023/02/17 10:04:36;;;;;;;12.70;6.45;;;12.10;99.90;;;;;;5032913;28;20037;-81
2023/02/17 10:07:27;;;;;;;10.20;5.45;;;12.20;99.90;;;;;;5033571;28;20044;-79
2023/02/17 10:10:01;;;;;;;9.93;5.38;;;12.10;99.90;;;;;;5024193;28;20125;-80
2023/02/17 10:12:36;;;;;;;10.75;5.53;;;12.10;99.90;;;;;;5039198;28;20034;-78
2023/02/17 10:15:23;;;;;;;9.05;5.43;;;12.10;99.90;;;;;;5023756;28;20018;-78
2023/02/17 10:17:51;;;;;;;9.88;4.82;;;12.10;99.90;;;;;;5024576;28;20441;-80
2023/02/17 10:20:34;;;;;;;8.40;5.25;;;12.10;99.90;;;;;;5022875;28;20069;-78
2023/02/17 10:23:14;;;;;;;10.48;5.22;;;12.10;99.90;;;;;;5023645;28;20021;-86
2023/02/17 10:26:07;;;;;;;8.23;4.70;;;12.10;99.90;;;;;;5023710;28;20028;-85
2023/02/17 10:28:59;;;;;;;7.85;4.50;;;12.10;99.90;;;;;;5024568;28;20509;-85
2023/02/17 10:31:58;;;;;;;8.77;5.45;;;12.20;99.90;;;;;;5043045;28;20025;-85
2023/02/17 10:35:12;;;;;;;8.13;4.78;;;12.20;99.90;;;;;;5024996;28;20025;-87
2023/02/17 10:37:57;;;;;;;8.10;4.72;;;12.20;99.90;;;;;;5017603;28;20029;-85
2023/02/17 10:40:27;;;;;;;9.00;4.90;;;12.20;99.90;;;;;;5017949;28;20552;-86
2023/02/17 10:42:59;;;;;;;8.20;4.40;;;12.20;99.90;;;;;;5026862;28;20040;-84
2023/02/17 10:45:30;;;;;;;10.60;5.30;;;12.20;99.90;;;;;;5033678;28;20032;-86
2023/02/17 10:48:10;;;;;;;9.23;5.13;;;12.10;99.90;;;;;;5034677;28;20018;-84
2023/02/17 10:50:37;;;;;;;9.52;4.85;;;12.10;99.90;;;;;;5033285;28;20018;-84
2023/02/17 10:53:16;;;;;;;12.45;5.53;;;12.20;99.90;;;;;;5019922;28;20446;-86
2023/02/17 10:56:18;;;;;;;8.90;5.15;;;12.10;99.90;;;;;;5044437;28;20025;-84
2023/02/17 10:59:16;;;;;;;9.27;4.65;;;12.10;99.90;;;;;;5032983;28;20024;-85
2023/02/17 11:01:43;;;;;;;9.68;4.88;;;12.10;99.90;;;;;;5032380;28;20025;-86
2023/02/17 11:04:10;;;;;;;8.35;4.65;;;12.20;99.90;;;;;;5026589;28;20120;-85
2023/02/17 11:06:40;;;;;;;13.15;5.93;;;12.20;99.90;;;;;;5011736;28;20033;-83
2023/02/17 11:09:27;;;;;;;9.00;5.20;;;12.20;99.90;;;;;;5026346;28;21249;-86
2023/02/17 11:12:13;;;;;;;9.40;4.97;;;12.20;99.90;;;;;;5027483;28;20376;-84
2023/02/17 11:14:45;;;;;;;12.07;5.65;;;12.20;99.90;;;;;;5037425;28;20473;-85
2023/02/17 11:17:22;;;;;;;11.02;5.93;;;12.20;99.90;;;;;;5032583;28;20112;-84
2023/02/17 11:19:57;;;;;;;9.07;5.32;;;12.20;99.90;;;;;;5032749;28;20120;-84
2023/02/17 11:22:31;;;;;;;12.40;5.18;;;12.20;99.90;;;;;;5020008;28;20061;-84
2023/02/17 11:24:59;;;;;;;12.43;5.68;;;12.20;99.90;;;;;;5043975;28;20470;-86
2023/02/17 11:27:25;;;;;;;12.13;5.68;;;12.30;99.90;;;;;;5032588;28;20104;-79
2023/02/17 11:29:51;;;;;;;10.02;4.75;;;12.30;99.90;;;;;;5032113;28;20050;-80
2023/02/17 11:32:18;;;;;;;12.77;5.65;;;12.30;99.90;;;;;;5032745;28;20104;-80
2023/02/17 11:34:56;;;;;;;14.43;6.45;;;12.30;99.90;;;;;;5032399;28;20034;-80
2023/02/17 11:37:26;;;;;;;10.55;5.88;;;12.30;99.90;;;;;;5031563;28;20025;-80
2023/02/17 11:39:54;;;;;;;12.70;6.22;;;12.30;99.90;;;;;;5022499;28;20386;-80
2023/02/17 11:42:29;;;;;;;9.45;5.68;;;12.30;99.90;;;;;;5012163;28;20053;-79
2023/02/17 11:44:57;;;;;;;11.75;5.78;;;12.20;99.90;;;;;;5011301;28;20108;-80
2023/02/17 11:47:53;;;;;;;13.23;6.38;;;12.20;99.90;;;;;;5012691;28;20085;-80
2023/02/17 11:50:28;;;;;;;12.68;5.88;;;12.20;99.90;;;;;;5029891;28;20102;-82
2023/02/17 11:53:12;;;;;;;10.32;5.45;;;12.20;99.90;;;;;;5031916;28;20025;-80
2023/02/17 11:56:02;;;;;;;12.40;6.22;;;12.10;99.90;;;;;;5032347;28;20021;-79
2023/02/17 11:58:42;;;;;;;12.57;6.05;;;12.20;99.90;;;;;;5031953;28;20018;-79
2023/02/17 12:01:26;;;;;;;12.05;6.10;;;12.10;99.90;;;;;;5028991;28;20026;-79
2023/02/17 12:04:10;;;;;;;13.82;5.72;;;12.10;99.90;;;;;;5030331;28;20095;-78
2023/02/17 12:06:45;;;;;;;;;;;12.10;99.90;;;;;;5031638;28;20025;-84
2023/02/17 12:09:19;;;;;;;9.75;5.80;;;12.10;99.90;;;;;;5013913;28;19920;-88
2023/02/17 12:12:06;;;;;;;11.80;6.38;;;12.10;99.90;;;;;;5015910;28;20049;-88
2023/02/17 12:14:50;;;;;;;14.77;6.80;;;12.10;99.90;;;;;;5025163;28;20058;-87
2023/02/17 12:17:21;;;;;;;;;;;12.10;99.90;;;;;;5029335;28;20132;-86
2023/02/17 12:20:19;;;;;;;10.27;5.85;;;12.10;99.90;;;;;;5029380;28;19906;-85
2023/02/17 12:23:05;;;;;;;14.25;7.53;;;12.10;99.90;;;;;;5012748;28;20026;-89
2023/02/17 12:25:36;;;;;;;13.98;7.10;;;12.20;99.90;;;;;;5029373;28;20026;-86
2023/02/17 12:28:07;;;;;;;11.70;6.90;;;12.10;99.90;;;;;;5031551;28;20013;-85
2023/02/17 12:31:01;;;;;;;13.00;6.72;;;12.20;99.90;;;;;;5012693;28;20046;-87
2023/02/17 12:33:53;;;;;;;13.90;7.50;;;12.10;99.90;;;;;;5012763;28;20475;-87
2023/02/17 12:36:22;;;;;;;12.07;7.53;;;12.10;99.90;;;;;;5012497;28;20117;-79
2023/02/17 12:38:57;;;;;;;13.63;7.82;;;12.10;99.90;;;;;;5021708;28;20213;-75
2023/02/17 12:41:36;;;;;;;13.90;8.38;;;12.10;99.90;;;;;;5027512;28;20033;-78
2023/02/17 12:44:26;;;;;;;13.43;8.98;;;12.10;99.90;;;;;;5022164;28;20026;-79
2023/02/17 12:46:56;;;;;;;15.23;9.00;;;12.10;99.90;;;;;;5035387;28;20480;-79
2023/02/17 12:49:25;;;;;;;16.27;8.38;;;12.10;99.90;;;;;;5020018;28;20079;-79
2023/02/17 12:52:02;;;;;;;13.80;7.65;;;12.10;99.90;;;;;;5030159;28;20037;-78